METAR Data
IDs: Format: Raw Decoded Include TAF

Data at: 2045 UTC 21 Sep 2021

METAR for:EGNX (Nottingham/E Midland, EN, UK)
Text:EGNX 212020Z 20005KT CAVOK 14/11 Q1030
Temperature: 14.0°C ( 57°F)
Dewpoint: 11.0°C ( 52°F) [RH = 82%]
Pressure (altimeter):30.41 inches Hg (1030.0 mb)
Winds:from the SSW (200 degrees) at 6 MPH (5 knots; 2.6 m/s)
Visibility:6 or more sm (10+ km)
Ceiling:ceiling and visibility are OK
Clouds:unknown